Time;durP1;ratioP1;P1;durP2;ratioP2;P2;SDS_P1;SDS_P2;PMS_P1;PMS_P2;Temp;Humidity;BMP_temperature;BMP_pressure;BME280_temperature;BME280_humidity;BME280_pressure;Samples;Min_cycle;Max_cycle;Signal;HPM_P1;HPM_P2
2022/08/25 00:00:31;;;;;;;;;;;;;;;22.53;100.00;101718.28;2615155;36;19958;-55
2022/08/25 00:03:00;;;;;;;;;;;;;;;22.54;100.00;101706.28;2615020;36;19946;-53
2022/08/25 00:05:30;;;;;;;;;;;;;;;22.53;100.00;101710.06;2614901;36;20424;-53
2022/08/25 00:07:58;;;;;;;;;;;;;;;22.36;100.00;101709.47;2615032;36;20391;-51
2022/08/25 00:10:27;;;;;;;;;;;;;;;22.39;100.00;101714.56;2615027;36;19985;-52
2022/08/25 00:12:55;;;;;;;;;;;;;;;22.35;100.00;101712.41;2613769;36;20436;-51
2022/08/25 00:15:27;;;;;;;;;;;;;;;22.43;100.00;101704.03;2611192;36;20002;-53
2022/08/25 00:17:56;;;;;;;;;;;;;;;22.28;100.00;101705.94;2610259;31;19946;-52
2022/08/25 00:20:24;;;;;;;;;;;;;;;22.13;100.00;101697.72;2610597;36;19950;-50
2022/08/25 00:22:53;;;;;;;;;;;;;;;22.07;100.00;101707.59;2611252;36;20874;-52
2022/08/25 00:25:22;;;;;;;;;;;;;;;22.08;100.00;101701.06;2611616;36;20447;-53
2022/08/25 00:27:51;;;;;;;;;;;;;;;22.00;100.00;101710.25;2610816;36;20442;-56
2022/08/25 00:30:19;;;;;;;;;;;;;;;21.98;100.00;101706.00;2611721;31;20359;-54
2022/08/25 00:32:50;;;;;;;;;;;;;;;21.90;100.00;101697.91;2610824;36;19954;-49
2022/08/25 00:35:18;;;;;;;;;;;;;;;21.82;100.00;101705.16;2609544;36;19950;-54
2022/08/25 00:37:46;;;;;;;;;;;;;;;21.77;100.00;101706.78;2612439;36;20004;-50
2022/08/25 00:40:14;;;;;;;;;;;;;;;21.72;100.00;101709.25;2614216;36;19946;-50
2022/08/25 00:42:43;;;;;;;;;;;;;;;21.70;100.00;101704.81;2611678;36;20455;-54
2022/08/25 00:45:11;;;;;;;;;;;;;;;21.68;100.00;101704.13;2614391;36;19958;-53
2022/08/25 00:47:40;;;;;;;;;;;;;;;21.68;100.00;101706.84;2614337;36;20332;-50
2022/08/25 00:50:11;;;;;;;;;;;;;;;21.65;100.00;101696.28;2612723;36;19954;-53
2022/08/25 00:52:43;;;;;;;;;;;;;;;21.66;100.00;101708.94;2612908;36;20535;-52
2022/08/25 00:55:15;;;;;;;;;;;;;;;21.69;100.00;101697.59;2612521;36;19946;-53
2022/08/25 00:57:44;;;;;;;;;;;;;;;21.63;100.00;101703.84;2612781;36;19974;-51
2022/08/25 01:00:15;;;;;;;;;;;;;;;21.66;100.00;101706.22;2610810;36;19977;-53
2022/08/25 01:02:43;;;;;;;;;;;;;;;21.54;100.00;101699.50;2612470;36;19958;-53
2022/08/25 01:05:14;;;;;;;;;;;;;;;21.63;100.00;101703.00;2614487;36;20348;-53
2022/08/25 01:07:42;;;;;;;;;;;;;;;21.68;100.00;101695.91;2614345;36;19994;-54
2022/08/25 01:10:12;;;;;;;;;;;;;;;21.60;100.00;101693.28;2613991;36;19987;-54
2022/08/25 01:12:40;;;;;;;;;;;;;;;21.59;100.00;101697.03;2611165;36;19947;-55
2022/08/25 01:15:12;;;;;;;;;;;;;;;21.58;100.00;101692.59;2613851;36;19957;-54
2022/08/25 01:17:47;;;;;;;;;;;;;;;21.45;100.00;101695.97;2613232;36;20010;-54
2022/08/25 01:20:19;;;;;;;;;;;;;;;21.49;100.00;101696.44;2613616;31;20383;-57
2022/08/25 01:22:50;;;;;;;;;;;;;;;21.49;100.00;101690.97;2613617;36;19954;-53
2022/08/25 01:25:23;;;;;;;;;;;;;;;21.57;100.00;101696.41;2612500;36;19959;-52
2022/08/25 01:27:51;;;;;;;;;;;;;;;21.49;100.00;101693.69;2613016;36;19951;-50
2022/08/25 01:30:20;;;;;;;;;;;;;;;21.32;100.00;101688.41;2615069;36;20355;-51
2022/08/25 01:32:48;;;;;;;;;;;;;;;21.31;100.00;101681.22;2614023;36;19950;-51
2022/08/25 01:35:17;;;;;;;;;;;;;;;21.26;100.00;101680.94;2614077;36;19973;-50
2022/08/25 01:37:45;;;;;;;;;;;;;;;21.26;100.00;101680.94;2612473;36;20446;-55
2022/08/25 01:40:16;;;;;;;;;;;;;;;21.17;100.00;101682.91;2609149;36;19957;-53
2022/08/25 01:42:49;;;;;;;;;;;;;;;21.21;100.00;101682.53;2613634;36;19977;-54
2022/08/25 01:45:17;;;;;;;;;;;;;;;21.28;100.00;101680.75;2613309;36;19953;-53
2022/08/25 01:47:45;;;;;;;;;;;;;;;21.14;100.00;101677.81;2614258;36;19957;-53
2022/08/25 01:50:13;;;;;;;;;;;;;;;21.04;100.00;101665.41;2612667;31;20011;-52
2022/08/25 01:52:48;;;;;;;;;;;;;;;20.95;100.00;101678.31;2613206;36;20450;-52
2022/08/25 01:55:19;;;;;;;;;;;;;;;20.97;100.00;101674.38;2611573;36;19953;-50
2022/08/25 01:57:49;;;;;;;;;;;;;;;20.88;100.00;101670.03;2611597;36;19969;-54
2022/08/25 02:00:18;;;;;;;;;;;;;;;20.87;100.00;101665.56;2611061;31;19959;-52
2022/08/25 02:02:47;;;;;;;;;;;;;;;20.77;100.00;101675.91;2610660;36;19954;-52
2022/08/25 02:05:16;;;;;;;;;;;;;;;20.74;100.00;101673.56;2610505;36;20459;-54
2022/08/25 02:07:44;;;;;;;;;;;;;;;20.72;100.00;101670.16;2611068;36;19957;-51
2022/08/25 02:10:13;;;;;;;;;;;;;;;20.84;100.00;101671.41;2612590;36;19970;-54
2022/08/25 02:12:44;;;;;;;;;;;;;;;20.78;100.00;101663.94;2612421;36;19947;-51
2022/08/25 02:15:13;;;;;;;;;;;;;;;20.66;100.00;101669.00;2613599;36;20443;-52
2022/08/25 02:17:41;;;;;;;;;;;;;;;20.59;100.00;101674.31;2614394;36;19950;-51
2022/08/25 02:20:10;;;;;;;;;;;;;;;20.55;100.00;101667.50;2613256;31;20400;-55
2022/08/25 02:22:38;;;;;;;;;;;;;;;20.51;100.00;101659.84;2613480;31;19995;-56
2022/08/25 02:25:07;;;;;;;;;;;;;;;20.48;100.00;101666.56;2612471;31;19946;-53
2022/08/25 02:27:35;;;;;;;;;;;;;;;20.54;100.00;101660.34;2612445;36;19959;-53
2022/08/25 02:30:06;;;;;;;;;;;;;;;20.53;100.00;101664.09;2614355;36;20424;-48
2022/08/25 02:32:34;;;;;;;;;;;;;;;20.60;100.00;101665.09;2612800;36;20432;-54
2022/08/25 02:35:02;;;;;;;;;;;;;;;20.52;100.00;101669.75;2613530;36;19967;-51
2022/08/25 02:37:30;;;;;;;;;;;;;;;20.52;100.00;101662.41;2614496;36;20506;-49
2022/08/25 02:39:58;;;;;;;;;;;;;;;20.51;100.00;101660.72;2613360;36;19966;-51
2022/08/25 02:42:26;;;;;;;;;;;;;;;20.49;100.00;101665.50;2614614;36;19945;-51
2022/08/25 02:44:55;;;;;;;;;;;;;;;20.40;100.00;101663.88;2615497;36;19963;-51
2022/08/25 02:47:26;;;;;;;;;;;;;;;20.37;100.00;101662.34;2614824;31;20001;-52
2022/08/25 02:49:54;;;;;;;;;;;;;;;20.40;100.00;101667.44;2614985;36;20610;-49
2022/08/25 02:52:22;;;;;;;;;;;;;;;20.40;100.00;101663.88;2614881;36;19961;-52
2022/08/25 02:54:50;;;;;;;;;;;;;;;20.29;100.00;101665.97;2614246;36;20029;-53
2022/08/25 02:57:18;;;;;;;;;;;;;;;20.34;100.00;101659.13;2614576;31;19947;-51
2022/08/25 02:59:47;;;;;;;;;;;;;;;20.26;100.00;101652.69;2614781;36;19950;-51
2022/08/25 03:02:16;;;;;;;;;;;;;;;20.24;100.00;101651.16;2614743;36;19947;-54
2022/08/25 03:04:46;;;;;;;;;;;;;;;20.20;100.00;101642.47;2613246;36;19951;-50
2022/08/25 03:07:15;;;;;;;;;;;;;;;20.21;100.00;101644.16;2614502;36;19959;-51
2022/08/25 03:09:43;;;;;;;;;;;;;;;20.27;100.00;101648.94;2615337;36;19998;-53
2022/08/25 03:12:11;;;;;;;;;;;;;;;20.25;100.00;101650.97;2614542;36;19952;-51
2022/08/25 03:14:39;;;;;;;;;;;;;;;20.25;100.00;101640.03;2615523;36;19975;-51
2022/08/25 03:17:08;;;;;;;;;;;;;;;20.15;100.00;101639.41;2615582;31;19998;-51
2022/08/25 03:19:36;;;;;;;;;;;;;;;20.12;100.00;101640.63;2614858;36;19973;-53
2022/08/25 03:22:07;;;;;;;;;;;;;;;20.18;100.00;101639.06;2615470;36;19950;-53
2022/08/25 03:24:38;;;;;;;;;;;;;;;20.20;100.00;101636.13;2611497;54;19947;-52
2022/08/25 03:27:04;;;;;;;;;;;;;;;20.25;100.00;101629.09;2615410;31;20492;-56
2022/08/25 03:29:33;;;;;;;;;;;;;;;20.20;100.00;101615.13;2614963;36;19957;-56
2022/08/25 03:32:01;;;;;;;;;;;;;;;20.21;100.00;101622.28;2614570;36;19981;-53
2022/08/25 03:34:31;;;;;;;;;;;;;;;20.17;100.00;101618.25;2615379;36;19955;-51
2022/08/25 03:37:00;;;;;;;;;;;;;;;20.26;100.00;101617.16;2614582;36;20335;-51
2022/08/25 03:39:30;;;;;;;;;;;;;;;20.25;100.00;101611.84;2614583;31;19970;-56
2022/08/25 03:41:58;;;;;;;;;;;;;;;20.24;100.00;101616.50;2615096;31;19973;-52
2022/08/25 03:44:26;;;;;;;;;;;;;;;20.25;100.00;101612.69;2615432;36;20023;-48
2022/08/25 03:46:54;;;;;;;;;;;;;;;20.08;100.00;101611.97;2614359;36;19980;-50
2022/08/25 03:49:24;;;;;;;;;;;;;;;20.06;100.00;101610.44;2614993;36;19947;-55
2022/08/25 03:51:53;;;;;;;;;;;;;;;20.11;100.00;101606.16;2615025;36;19946;-53
2022/08/25 03:54:23;;;;;;;;;;;;;;;20.14;100.00;101604.94;2614426;36;19946;-52
2022/08/25 03:56:54;;;;;;;;;;;;;;;20.08;100.00;101600.16;2614593;36;19950;-51
2022/08/25 03:59:22;;;;;;;;;;;;;;;20.11;100.00;101592.47;2614700;36;20391;-53
2022/08/25 04:01:51;;;;;;;;;;;;;;;20.08;100.00;101595.59;2615001;36;20349;-56
2022/08/25 04:04:19;;;;;;;;;;;;;;;20.11;100.00;101594.34;2614661;36;19946;-49
2022/08/25 04:06:47;;;;;;;;;;;;;;;20.09;100.00;101586.31;2614763;36;19957;-50
2022/08/25 04:09:15;;;;;;;;;;;;;;;20.04;100.00;101593.41;2614098;36;19950;-49
2022/08/25 04:11:43;;;;;;;;;;;;;;;20.06;100.00;101591.31;2615364;36;19970;-51
2022/08/25 04:14:14;;;;;;;;;;;;;;;19.99;100.00;101590.34;2614730;36;19950;-55
2022/08/25 04:16:42;;;;;;;;;;;;;;;20.01;100.00;101582.78;2615257;31;19947;-51
2022/08/25 04:19:10;;;;;;;;;;;;;;;20.09;100.00;101585.50;2614588;36;19985;-52
2022/08/25 04:21:39;;;;;;;;;;;;;;;20.00;100.00;101595.63;2615110;36;19951;-51
2022/08/25 04:24:11;;;;;;;;;;;;;;;19.97;100.00;101600.59;2612381;36;19957;-50
2022/08/25 04:26:41;;;;;;;;;;;;;;;19.87;100.00;101593.47;2614899;36;19950;-52
2022/08/25 04:29:10;;;;;;;;;;;;;;;19.81;100.00;101585.16;2614149;36;20382;-51
2022/08/25 04:31:42;;;;;;;;;;;;;;;19.85;100.00;101590.06;2615089;36;19951;-53
2022/08/25 04:34:10;;;;;;;;;;;;;;;20.04;100.00;101587.94;2614695;36;20514;-52
2022/08/25 04:36:38;;;;;;;;;;;;;;;19.88;100.00;101584.25;2613843;36;19958;-50
2022/08/25 04:39:06;;;;;;;;;;;;;;;19.85;100.00;101575.59;2614037;36;20363;-51
2022/08/25 04:41:34;;;;;;;;;;;;;;;19.79;100.00;101574.41;2614814;31;19947;-54
2022/08/25 04:44:02;;;;;;;;;;;;;;;19.81;100.00;101566.88;2614285;36;19967;-50
2022/08/25 04:46:32;;;;;;;;;;;;;;;19.75;100.00;101567.56;2614389;31;19954;-50
2022/08/25 04:49:03;;;;;;;;;;;;;;;19.83;100.00;101574.88;2614309;36;19951;-50
2022/08/25 04:51:32;;;;;;;;;;;;;;;19.81;100.00;101577.81;2614987;36;19947;-51
2022/08/25 04:54:07;;;;;;;;;;;;;;;19.79;100.00;101577.16;2614039;46;19970;-55
2022/08/25 04:56:35;;;;;;;;;;;;;;;19.99;100.00;101568.47;2614623;36;19950;-51
2022/08/25 04:59:03;;;;;;;;;;;;;;;20.04;100.00;101574.25;2614505;36;19951;-52
2022/08/25 05:01:32;;;;;;;;;;;;;;;19.95;100.00;101568.84;2613697;36;19954;-52
2022/08/25 05:04:03;;;;;;;;;;;;;;;20.07;100.00;101576.63;2613314;36;20440;-52
2022/08/25 05:06:31;;;;;;;;;;;;;;;20.18;100.00;101578.09;2615252;31;20348;-51
2022/08/25 05:09:00;;;;;;;;;;;;;;;20.19;100.00;101579.78;2613672;36;19985;-50
2022/08/25 05:11:29;;;;;;;;;;;;;;;20.14;100.00;101569.41;2615132;36;20230;-49
2022/08/25 05:13:59;;;;;;;;;;;;;;;20.08;100.00;101575.59;2614655;36;19950;-55
2022/08/25 05:16:27;;;;;;;;;;;;;;;20.27;100.00;101564.19;2614220;36;19950;-54
2022/08/25 05:18:56;;;;;;;;;;;;;;;20.23;100.00;101573.78;2613923;36;19977;-53
2022/08/25 05:21:28;;;;;;;;;;;;;;;20.30;100.00;101568.41;2613625;36;19954;-55
2022/08/25 05:23:58;;;;;;;;;;;;;;;20.35;100.00;101566.00;2613911;36;19962;-49
2022/08/25 05:26:28;;;;;;;;;;;;;;;20.39;100.00;101571.94;2614445;31;20018;-54
2022/08/25 05:28:57;;;;;;;;;;;;;;;20.48;100.00;101570.84;2614053;36;20545;-54
2022/08/25 05:31:25;;;;;;;;;;;;;;;20.51;100.00;101575.06;2614303;31;19997;-50
2022/08/25 05:33:54;;;;;;;;;;;;;;;20.56;100.00;101572.66;2614060;36;20006;-50
2022/08/25 05:36:23;;;;;;;;;;;;;;;20.51;100.00;101577.81;2614806;31;19978;-53
2022/08/25 05:38:54;;;;;;;;;;;;;;;20.61;100.00;101579.28;2613804;36;19955;-50
2022/08/25 05:41:23;;;;;;;;;;;;;;;20.67;100.00;101583.19;2614417;36;19950;-52
2022/08/25 05:43:51;;;;;;;;;;;;;;;20.64;100.00;101578.91;2614249;36;19961;-50
2022/08/25 05:46:20;;;;;;;;;;;;;;;20.78;100.00;101587.34;2614685;31;20660;-52
2022/08/25 05:48:49;;;;;;;;;;;;;;;20.89;100.00;101575.97;2614317;36;19981;-54
2022/08/25 05:51:17;;;;;;;;;;;;;;;20.90;100.00;101580.38;2613464;36;19950;-49
2022/08/25 05:53:46;;;;;;;;;;;;;;;20.95;100.00;101591.63;2613313;36;19958;-53
2022/08/25 05:56:17;;;;;;;;;;;;;;;20.93;100.00;101588.19;2614110;36;19945;-52
2022/08/25 05:58:45;;;;;;;;;;;;;;;21.10;100.00;101582.56;2614574;36;19982;-52
2022/08/25 06:04:01;;;;;;;;;;;;;;;21.11;100.00;101587.00;2614687;36;20356;-50
2022/08/25 06:06:29;;;;;;;;;;;;;;;21.32;100.00;101592.56;2614498;36;19954;-51
2022/08/25 06:08:57;;;;;;;;;;;;;;;21.46;100.00;101587.28;2613357;31;19978;-52
2022/08/25 06:11:29;;;;;;;;;;;;;;;21.61;100.00;101581.81;2615267;36;19947;-48
2022/08/25 06:13:57;;;;;;;;;;;;;;;21.77;100.00;101588.94;2613705;36;19981;-56
2022/08/25 06:16:25;;;;;;;;;;;;;;;21.85;100.00;101583.38;2614938;36;19955;-52
2022/08/25 06:18:54;;;;;;;;;;;;;;;22.00;100.00;101577.84;2612831;36;19947;-50
2022/08/25 06:21:22;;;;;;;;;;;;;;;21.93;100.00;101594.19;2613465;36;19946;-51
2022/08/25 06:23:50;;;;;;;;;;;;;;;21.90;100.00;101588.28;2613750;36;19954;-51
2022/08/25 06:26:19;;;;;;;;;;;;;;;22.01;100.00;101593.22;2614449;36;19953;-51
2022/08/25 06:28:50;;;;;;;;;;;;;;;22.14;100.00;101590.66;2615203;36;19985;-53
2022/08/25 06:31:18;;;;;;;;;;;;;;;22.14;100.00;101596.13;2614703;36;19981;-54
2022/08/25 06:33:46;;;;;;;;;;;;;;;22.36;100.00;101598.88;2614529;36;19954;-49
2022/08/25 06:36:15;;;;;;;;;;;;;;;22.37;100.00;101597.84;2614221;31;20463;-54
2022/08/25 06:38:46;;;;;;;;;;;;;;;22.44;100.00;101596.03;2616394;31;19978;-54
2022/08/25 06:41:15;;;;;;;;;;;;;;;22.59;100.00;101595.09;2615094;36;20349;-53
2022/08/25 06:43:43;;;;;;;;;;;;;;;22.62;100.00;101587.31;2614186;36;19946;-52
2022/08/25 06:46:16;;;;;;;;;;;;;;;22.78;100.00;101591.66;2615147;36;19938;-52
2022/08/25 06:48:44;;;;;;;;;;;;;;;23.11;100.00;101596.56;2614870;36;19953;-54
2022/08/25 06:51:13;;;;;;;;;;;;;;;23.06;100.00;101594.38;2614741;31;20344;-52
2022/08/25 06:53:41;;;;;;;;;;;;;;;23.19;100.00;101587.31;2614343;36;19970;-53
2022/08/25 06:56:09;;;;;;;;;;;;;;;23.31;100.00;101588.44;2612662;36;20054;-54
2022/08/25 06:58:38;;;;;;;;;;;;;;;23.60;100.00;101590.06;2612847;36;20210;-53
2022/08/25 07:01:10;;;;;;;;;;;;;;;23.72;100.00;101592.22;2614713;31;19958;-52
2022/08/25 07:03:41;;;;;;;;;;;;;;;23.78;100.00;101581.25;2615588;36;19946;-53
2022/08/25 07:06:09;;;;;;;;;;;;;;;23.97;100.00;101578.81;2614424;36;19950;-52
2022/08/25 07:08:37;;;;;;;;;;;;;;;24.05;100.00;101584.09;2613819;36;19985;-54
2022/08/25 07:11:06;;;;;;;;;;;;;;;24.20;100.00;101583.06;2615115;36;19946;-51
2022/08/25 07:13:35;;;;;;;;;;;;;;;24.28;100.00;101583.72;2613918;31;19951;-57
2022/08/25 07:16:04;;;;;;;;;;;;;;;24.27;100.00;101589.44;2613546;36;19958;-50
2022/08/25 07:18:32;;;;;;;;;;;;;;;24.70;100.00;101582.69;2615096;36;19989;-52
2022/08/25 07:21:03;;;;;;;;;;;;;;;24.84;100.00;101585.22;2613423;36;19938;-51
2022/08/25 07:23:31;;;;;;;;;;;;;;;25.05;100.00;101591.56;2615556;36;19946;-53
2022/08/25 07:26:08;;;;;;;;;;;;;;;25.07;100.00;101581.16;2614156;36;19950;-52
2022/08/25 07:28:36;;;;;;;;;;;;;;;25.42;100.00;101591.91;2615348;36;20378;-51
2022/08/25 07:31:04;;;;;;;;;;;;;;;25.68;100.00;101595.63;2613871;36;19977;-53
2022/08/25 07:33:32;;;;;;;;;;;;;;;25.98;100.00;101597.81;2615771;36;20328;-53
2022/08/25 07:36:00;;;;;;;;;;;;;;;25.94;100.00;101591.91;2614936;36;19977;-55
2022/08/25 07:38:28;;;;;;;;;;;;;;;25.74;100.00;101583.72;2615418;36;19950;-56
2022/08/25 07:41:02;;;;;;;;;;;;;;;26.00;100.00;101584.66;2615567;36;19989;-49
2022/08/25 07:43:30;;;;;;;;;;;;;;;26.27;100.00;101578.97;2615643;31;19958;-52
2022/08/25 07:45:59;;;;;;;;;;;;;;;26.43;95.66;101581.19;2614587;36;19985;-53
2022/08/25 07:48:27;;;;;;;;;;;;;;;26.55;100.00;101589.59;2614183;36;20491;-51
2022/08/25 07:50:55;;;;;;;;;;;;;;;26.52;100.00;101582.59;2614633;36;19950;-55
2022/08/25 07:53:25;;;;;;;;;;;;;;;26.71;100.00;101582.69;2615134;36;19973;-53
2022/08/25 07:55:53;;;;;;;;;;;;;;;27.05;91.40;101583.19;2614866;36;19947;-52
2022/08/25 07:58:21;;;;;;;;;;;;;;;27.06;85.39;101582.97;2613626;31;19973;-49
2022/08/25 08:00:51;;;;;;;;;;;;;;;27.16;95.50;101590.72;2613957;36;19950;-51
2022/08/25 08:03:21;;;;;;;;;;;;;;;27.15;99.24;101580.75;2614099;36;19974;-49
2022/08/25 08:05:49;;;;;;;;;;;;;;;27.24;96.54;101584.06;2614956;36;19959;-50
2022/08/25 08:08:17;;;;;;;;;;;;;;;27.08;95.96;101579.97;2614352;36;19947;-50
2022/08/25 08:10:48;;;;;;;;;;;;;;;27.33;93.76;101579.06;2615038;36;20440;-50
2022/08/25 08:13:16;;;;;;;;;;;;;;;27.24;76.87;101582.13;2615182;31;19947;-50
2022/08/25 08:15:45;;;;;;;;;;;;;;;27.55;77.83;101583.06;2615389;36;19939;-53
2022/08/25 08:18:13;;;;;;;;;;;;;;;27.55;76.40;101580.31;2615433;31;19970;-49
2022/08/25 08:20:41;;;;;;;;;;;;;;;27.54;87.50;101575.84;2614866;36;19950;-52
2022/08/25 08:23:09;;;;;;;;;;;;;;;27.68;85.75;101575.66;2614475;36;19985;-49
2022/08/25 08:25:37;;;;;;;;;;;;;;;27.72;74.12;101571.34;2614658;36;19946;-52
2022/08/25 08:28:08;;;;;;;;;;;;;;;28.03;81.03;101575.00;2614191;36;19954;-51
2022/08/25 08:30:36;;;;;;;;;;;;;;;28.35;71.23;101569.19;2614601;36;19958;-52
2022/08/25 08:33:04;;;;;;;;;;;;;;;28.24;78.39;101562.53;2615083;31;19953;-51
2022/08/25 08:35:32;;;;;;;;;;;;;;;28.62;84.10;101550.22;2614169;36;19981;-51
2022/08/25 08:38:01;;;;;;;;;;;;;;;28.52;80.34;101547.16;2613240;31;19957;-52
2022/08/25 08:40:29;;;;;;;;;;;;;;;28.49;76.18;101554.06;2611886;36;19955;-51
2022/08/25 08:43:05;;;;;;;;;;;;;;;28.81;73.23;101551.81;2611814;36;19981;-54
2022/08/25 08:45:38;;;;;;;;;;;;;;;29.00;85.29;101546.09;2612656;31;19969;-52
2022/08/25 08:48:26;;;;;;;;;;;;;;;29.01;65.56;101545.03;2613628;36;19957;-49
2022/08/25 08:51:03;;;;;;;;;;;;;;;29.10;66.09;101542.72;2613042;36;19947;-52
2022/08/25 08:53:33;;;;;;;;;;;;;;;29.44;69.50;101554.00;2611964;36;20038;-52
2022/08/25 08:56:06;;;;;;;;;;;;;;;29.68;62.53;101536.19;2612786;36;19950;-53
2022/08/25 08:58:39;;;;;;;;;;;;;;;29.65;74.18;101533.06;2612095;36;19989;-53
2022/08/25 09:01:12;;;;;;;;;;;;;;;29.97;63.67;101541.72;2611880;36;19955;-49
2022/08/25 09:03:42;;;;;;;;;;;;;;;29.93;62.60;101536.94;2613389;36;20876;-55
2022/08/25 09:06:12;;;;;;;;;;;;;;;29.84;60.78;101536.50;2613403;31;20001;-50
2022/08/25 09:08:43;;;;;;;;;;;;;;;29.86;60.17;101537.94;2611271;36;19951;-53
2022/08/25 09:11:13;;;;;;;;;;;;;;;30.22;60.71;101529.41;2611671;31;19973;-50
2022/08/25 09:13:49;;;;;;;;;;;;;;;30.09;66.42;101526.94;2612732;36;19951;-52
2022/08/25 09:19:11;;;;;;;;;;;;;;;30.16;58.15;101534.00;2612150;36;20049;-52
2022/08/25 09:21:45;;;;;;;;;;;;;;;30.23;59.79;101528.31;2612519;36;19946;-51
2022/08/25 09:24:27;;;;;;;;;;;;;;;30.66;57.00;101532.34;2611672;36;19958;-52
2022/08/25 09:27:01;;;;;;;;;;;;;;;30.81;55.63;101522.56;2610536;36;19970;-53
2022/08/25 09:29:34;;;;;;;;;;;;;;;30.95;54.93;101529.44;2611252;36;20046;-52
2022/08/25 09:32:05;;;;;;;;;;;;;;;30.68;53.43;101527.38;2611290;36;19992;-53
2022/08/25 09:34:35;;;;;;;;;;;;;;;30.47;50.78;101529.00;2611152;36;19997;-49
2022/08/25 09:37:03;;;;;;;;;;;;;;;30.66;51.45;101525.97;2613552;31;19950;-51
2022/08/25 09:39:31;;;;;;;;;;;;;;;30.63;50.89;101532.84;2611559;36;20455;-50
2022/08/25 09:42:00;;;;;;;;;;;;;;;30.66;49.69;101525.97;2611279;31;19951;-54
2022/08/25 09:44:29;;;;;;;;;;;;;;;30.88;52.56;101514.88;2611866;36;20360;-52
2022/08/25 09:47:03;;;;;;;;;;;;;;;30.98;49.49;101515.00;2610373;36;19951;-53
2022/08/25 09:49:39;;;;;;;;;;;;;;;31.31;47.43;101517.97;2606495;36;20355;-49
2022/08/25 09:52:25;;;;;;;;;;;;;;;31.28;49.57;101510.97;2613128;36;19950;-49
2022/08/25 09:54:54;;;;;;;;;;;;;;;31.42;47.63;101508.63;2612049;36;19955;-51
2022/08/25 09:57:32;;;;;;;;;;;;;;;31.55;50.86;101518.50;2612414;36;19978;-49
2022/08/25 10:00:11;;;;;;;;;;;;;;;31.71;48.73;101509.22;2612547;36;19950;-53
2022/08/25 10:02:39;;;;;;;;;;;;;;;31.82;46.83;101500.97;2612089;36;19961;-50
2022/08/25 10:05:22;;;;;;;;;;;;;;;31.69;47.40;101505.88;2612511;36;20423;-52
2022/08/25 10:07:52;;;;;;;;;;;;;;;31.68;46.72;101492.25;2612104;36;19955;-52
2022/08/25 10:10:26;;;;;;;;;;;;;;;31.89;47.44;101498.81;2612107;36;19951;-52
2022/08/25 10:12:56;;;;;;;;;;;;;;;31.82;45.94;101489.84;2612286;31;19946;-52
2022/08/25 10:15:27;;;;;;;;;;;;;;;31.76;46.24;101495.38;2614574;36;20419;-53
2022/08/25 10:17:57;;;;;;;;;;;;;;;31.91;49.16;101480.75;2613259;36;20483;-53
2022/08/25 10:20:29;;;;;;;;;;;;;;;32.18;43.34;101479.91;2613723;36;20391;-49
2022/08/25 10:23:12;;;;;;;;;;;;;;;32.43;42.08;101470.88;2615827;36;19961;-51
2022/08/25 10:25:50;;;;;;;;;;;;;;;32.57;46.08;101475.97;2615160;36;19973;-51
2022/08/25 10:28:28;;;;;;;;;;;;;;;32.25;42.91;101465.75;2614691;36;20442;-53
2022/08/25 10:31:00;;;;;;;;;;;;;;;32.13;42.34;101469.56;2614801;36;19989;-51
2022/08/25 10:33:32;;;;;;;;;;;;;;;32.78;43.65;101461.06;2615346;36;20444;-48
2022/08/25 10:36:06;;;;;;;;;;;;;;;32.64;43.66;101462.63;2615067;36;19962;-49
2022/08/25 10:38:39;;;;;;;;;;;;;;;32.27;41.19;101455.19;2614887;36;19954;-52
2022/08/25 10:41:12;;;;;;;;;;;;;;;32.65;43.19;101461.53;2612885;36;19981;-51
2022/08/25 10:43:45;;;;;;;;;;;;;;;32.65;41.99;101454.00;2614011;36;20001;-50
2022/08/25 10:46:16;;;;;;;;;;;;;;;32.90;43.40;101457.22;2614042;36;20427;-52
2022/08/25 10:48:56;;;;;;;;;;;;;;;33.11;40.26;101441.41;2612202;36;19957;-49
2022/08/25 10:51:39;;;;;;;;;;;;;;;33.05;41.67;101437.75;2614615;31;19989;-49
2022/08/25 10:54:12;;;;;;;;;;;;;;;32.90;40.87;101446.09;2609776;36;20715;-49
2022/08/25 10:56:42;;;;;;;;;;;;;;;33.27;41.28;101445.13;2615425;36;20348;-50
2022/08/25 10:59:27;;;;;;;;;;;;;;;33.58;40.61;101425.63;2613803;36;20424;-50
2022/08/25 11:02:03;;;;;;;;;;;;;;;33.52;39.95;101424.78;2614738;36;20339;-51
2022/08/25 11:04:34;;;;;;;;;;;;;;;33.38;42.54;101418.94;2612958;31;20412;-52
2022/08/25 11:07:07;;;;;;;;;;;;;;;33.35;41.63;101413.91;2611892;36;19951;-50
2022/08/25 11:09:38;;;;;;;;;;;;;;;33.33;38.79;101413.31;2611342;36;19958;-53
2022/08/25 11:12:11;;;;;;;;;;;;;;;33.54;41.10;101414.19;2611918;36;19947;-51
2022/08/25 11:14:41;;;;;;;;;;;;;;;33.83;40.20;101414.50;2611739;36;19946;-50
2022/08/25 11:17:13;;;;;;;;;;;;;;;33.96;38.10;101406.69;2613390;36;19946;-50
2022/08/25 11:19:44;;;;;;;;;;;;;;;33.91;39.10;101403.88;2615357;36;19950;-50
2022/08/25 11:22:18;;;;;;;;;;;;;;;33.98;36.84;101404.44;2615115;31;19946;-52
2022/08/25 11:24:56;;;;;;;;;;;;;;;34.34;37.65;101408.03;2614317;36;19943;-53
2022/08/25 11:27:29;;;;;;;;;;;;;;;33.95;36.84;101411.44;2614403;36;19951;-50
2022/08/25 11:30:01;;;;;;;;;;;;;;;33.96;36.42;101403.88;2613706;36;19955;-50
2022/08/25 11:32:34;;;;;;;;;;;;;;;33.54;42.50;101405.84;2615006;31;19954;-50
2022/08/25 11:35:02;;;;;;;;;;;;;;;33.80;38.56;101403.88;2613797;36;20424;-50
2022/08/25 11:37:34;;;;;;;;;;;;;;;33.87;37.45;101393.28;2611700;36;19951;-55
2022/08/25 11:40:13;;;;;;;;;;;;;;;33.86;36.28;101386.03;2611034;36;19954;-52
2022/08/25 11:42:51;;;;;;;;;;;;;;;34.17;39.57;101397.16;2611408;36;19962;-52
2022/08/25 11:45:26;;;;;;;;;;;;;;;34.13;36.97;101396.03;2610334;36;20455;-51
2022/08/25 11:48:05;;;;;;;;;;;;;;;34.02;37.41;101394.38;2610621;36;19950;-53
2022/08/25 11:50:34;;;;;;;;;;;;;;;34.25;38.71;101380.91;2612294;36;19985;-47
2022/08/25 11:53:18;;;;;;;;;;;;;;;34.42;35.77;101383.41;2611880;36;19950;-49
2022/08/25 11:55:51;;;;;;;;;;;;;;;34.49;37.52;101381.16;2612100;36;19954;-48
2022/08/25 11:58:34;;;;;;;;;;;;;;;34.49;40.98;101381.16;2612371;36;20025;-50
2022/08/25 12:01:02;;;;;;;;;;;;;;;34.00;38.83;101382.66;2610381;36;19953;-51
2022/08/25 12:03:45;;;;;;;;;;;;;;;34.20;37.78;101373.38;2611610;36;19962;-50
2022/08/25 12:06:18;;;;;;;;;;;;;;;33.69;36.54;101366.75;2611859;36;19969;-49
2022/08/25 12:08:53;;;;;;;;;;;;;;;33.76;37.12;101363.72;2610991;36;19954;-50
2022/08/25 12:11:36;;;;;;;;;;;;;;;34.39;39.00;101370.84;2612429;36;19973;-50
2022/08/25 12:14:15;;;;;;;;;;;;;;;34.71;40.27;101372.41;2611436;31;19989;-51
2022/08/25 12:16:44;;;;;;;;;;;;;;;34.03;36.14;101354.16;2611873;36;20002;-48
2022/08/25 12:19:27;;;;;;;;;;;;;;;34.43;34.72;101355.19;2611165;36;19981;-52
2022/08/25 12:21:57;;;;;;;;;;;;;;;34.61;34.81;101362.09;2611908;36;19978;-50
2022/08/25 12:24:46;;;;;;;;;;;;;;;35.15;35.50;101359.59;2610982;31;19954;-49
2022/08/25 12:27:26;;;;;;;;;;;;;;;34.82;37.06;101365.69;2611894;36;20413;-49
2022/08/25 12:29:58;;;;;;;;;;;;;;;35.27;33.45;101352.50;2610989;36;20006;-49
2022/08/25 12:32:46;;;;;;;;;;;;;;;35.38;34.64;101360.84;2611413;36;19946;-51
2022/08/25 12:35:27;;;;;;;;;;;;;;;34.82;35.93;101362.88;2612368;36;19997;-51
2022/08/25 12:37:57;;;;;;;;;;;;;;;34.81;34.10;101358.41;2611778;36;19985;-50
2022/08/25 12:40:30;;;;;;;;;;;;;;;34.71;35.40;101362.03;2610994;36;19955;-54
2022/08/25 12:43:06;;;;;;;;;;;;;;;34.73;35.56;101358.97;2611967;31;19962;-52
2022/08/25 12:45:37;;;;;;;;;;;;;;;35.50;35.13;101361.31;2613021;36;20378;-50
2022/08/25 12:48:20;;;;;;;;;;;;;;;35.39;36.98;101365.31;2611503;36;19950;-52
2022/08/25 12:50:50;;;;;;;;;;;;;;;34.84;36.34;101359.78;2611656;36;19977;-51
2022/08/25 12:53:24;;;;;;;;;;;;;;;33.93;36.07;101356.97;2611631;31;19988;-49